Time;durP1;ratioP1;P1;durP2;ratioP2;P2;SDS_P1;SDS_P2;PMS_P1;PMS_P2;Temp;Humidity;BMP_temperature;BMP_pressure;BME280_temperature;BME280_humidity;BME280_pressure;Samples;Min_cycle;Max_cycle;Signal;HPM_P1;HPM_P2
2024/02/15 00:02:02;;;;;;;23.40;13.53;;;;;;;10.59;100.00;102019.88;5010197;28;20195;-73
2024/02/15 00:04:28;;;;;;;28.03;14.97;;;;;;;10.04;100.00;101928.53;4999648;28;20570;-73
2024/02/15 00:06:54;;;;;;;27.60;14.40;;;;;;;10.54;100.00;102014.19;5014774;28;20185;-72
2024/02/15 00:09:19;;;;;;;29.00;15.27;;;;;;;10.58;100.00;102033.44;5008173;28;21554;-72
2024/02/15 00:11:44;;;;;;;29.37;14.97;;;;;;;10.60;100.00;102044.84;4997547;28;20179;-72
2024/02/15 00:14:10;;;;;;;29.27;14.23;;;;;;;9.95;100.00;101941.09;5013993;28;20189;-73
2024/02/15 00:16:35;;;;;;;27.10;15.00;;;;;;;9.98;100.00;101934.56;5006372;28;20195;-73
2024/02/15 00:19:01;;;;;;;26.67;15.63;;;;;;;10.49;100.00;102013.00;5007644;28;20192;-72
2024/02/15 00:21:27;;;;;;;29.50;14.30;;;;;;;10.54;100.00;102022.22;5007396;28;20232;-71
2024/02/15 00:23:55;;;;;;;29.33;16.57;;;;;;;10.10;100.00;101958.22;5006052;28;20667;-72
2024/02/15 00:26:21;;;;;;;27.50;15.60;;;;;;;10.61;100.00;102039.31;5011200;28;20173;-72
2024/02/15 00:28:47;;;;;;;31.23;16.70;;;;;;;10.28;100.00;101978.66;5012298;28;20453;-72
2024/02/15 00:31:13;;;;;;;33.30;17.40;;;;;;;10.52;100.00;102023.41;4994884;28;20435;-73
2024/02/15 00:33:38;;;;;;;32.03;16.63;;;;;;;10.55;100.00;102023.06;5009518;28;20439;-72
2024/02/15 00:36:04;;;;;;;35.00;17.63;;;;;;;10.61;100.00;102033.09;5008138;28;20188;-72
2024/02/15 00:38:32;;;;;;;29.47;16.57;;;;;;;10.35;100.00;101985.84;5010548;28;20218;-73
2024/02/15 00:40:58;;;;;;;35.87;17.03;;;;;;;10.58;100.00;102018.19;5011885;28;21215;-73
2024/02/15 00:43:24;;;;;;;32.03;17.07;;;;;;;10.61;100.00;102017.84;5006201;28;20438;-72
2024/02/15 00:45:50;;;;;;;33.43;17.67;;;;;;;10.57;100.00;102019.19;5007385;28;20656;-72
2024/02/15 00:48:18;;;;;;;32.67;16.83;;;;;;;10.50;100.00;102010.16;5000310;28;20808;-73
2024/02/15 00:50:44;;;;;;;32.47;17.00;;;;;;;10.29;100.00;102009.84;5009493;28;20212;-73
2024/02/15 00:53:09;;;;;;;34.40;17.47;;;;;;;10.62;100.00;102030.28;4997834;28;20516;-72
2024/02/15 00:55:34;;;;;;;34.13;16.87;;;;;;;10.62;100.00;102034.81;5014399;28;20668;-73
2024/02/15 00:58:00;;;;;;;35.97;17.10;;;;;;;10.46;100.00;101991.88;5019165;28;20225;-72
2024/02/15 01:00:26;;;;;;;36.77;17.20;;;;;;;10.53;100.00;102008.97;4993358;28;20232;-73
2024/02/15 01:02:52;;;;;;;37.30;19.50;;;;;;;10.34;100.00;101978.00;5011578;28;20188;-73
2024/02/15 01:05:18;;;;;;;32.67;18.10;;;;;;;10.53;100.00;102014.34;5010873;28;20235;-73
2024/02/15 01:07:44;;;;;;;40.43;18.03;;;;;;;10.61;100.00;102035.78;4994277;28;20443;-72
2024/02/15 01:10:09;;;;;;;41.17;19.80;;;;;;;10.59;100.00;102029.78;4992603;28;20458;-72
2024/02/15 01:12:35;;;;;;;38.17;17.73;;;;;;;10.60;100.00;102031.44;5004720;28;20685;-73
2024/02/15 01:15:00;;;;;;;38.47;17.00;;;;;;;10.26;100.00;101967.25;4991229;28;20176;-73
2024/02/15 01:17:26;;;;;;;32.60;17.63;;;;;;;10.57;100.00;102040.66;5008763;28;20201;-72
2024/02/15 01:19:53;;;;;;;43.87;19.13;;;;;;;10.43;100.00;101994.91;4993754;28;20204;-72
2024/02/15 01:22:18;;;;;;;41.23;18.23;;;;;;;10.05;100.00;101940.94;5011492;28;20272;-72
2024/02/15 01:24:45;;;;;;;34.73;17.67;;;;;;;10.61;100.00;102020.53;5004480;28;20519;-73
2024/02/15 01:27:10;;;;;;;34.40;17.40;;;;;;;10.37;100.00;101989.22;5009426;28;20185;-73
2024/02/15 01:29:36;;;;;;;33.53;17.53;;;;;;;9.89;100.00;101913.16;5008024;28;20460;-73
2024/02/15 01:32:02;;;;;;;36.57;18.43;;;;;;;10.29;100.00;101981.16;5003797;28;20189;-72
2024/02/15 01:34:28;;;;;;;36.03;19.60;;;;;;;10.48;100.00;102033.63;5008304;28;20667;-72
2024/02/15 01:36:53;;;;;;;35.10;17.23;;;;;;;10.50;100.00;102033.44;4992373;28;20471;-72
2024/02/15 01:39:19;;;;;;;40.17;17.67;;;;;;;10.22;100.00;101979.31;5007562;28;20227;-72
2024/02/15 01:41:50;;;;;;;33.70;18.20;;;;;;;10.40;100.00;102023.75;4987520;28;20187;-72
2024/02/15 01:44:17;;;;;;;40.40;19.27;;;;;;;9.99;100.00;101963.91;5008153;28;20192;-72
2024/02/15 01:46:43;;;;;;;35.23;19.00;;;;;;;10.15;100.00;101989.84;5010869;28;20438;-72
2024/02/15 01:49:09;;;;;;;36.57;18.17;;;;;;;10.35;100.00;102042.16;4999383;28;20464;-72
2024/02/15 01:51:37;;;;;;;34.80;17.70;;;;;;;10.42;100.00;102061.13;4987834;28;20188;-72
2024/02/15 01:54:02;;;;;;;37.20;18.53;;;;;;;10.33;100.00;102067.50;5002061;28;20674;-72
2024/02/15 01:56:30;;;;;;;40.60;21.03;;;;;;;9.64;100.00;101957.84;5006655;28;20451;-72
2024/02/15 01:58:56;;;;;;;44.23;18.53;;;;;;;10.38;100.00;102067.81;4989183;28;20443;-72
2024/02/15 02:01:22;;;;;;;43.87;18.87;;;;;;;10.32;100.00;102063.97;5007670;28;20443;-72
2024/02/15 02:03:48;;;;;;;40.63;18.97;;;;;;;10.45;100.00;102086.78;5011343;28;20436;-72
2024/02/15 02:06:13;;;;;;;34.07;17.90;;;;;;;10.33;100.00;102073.72;5008875;28;20192;-72
2024/02/15 02:08:39;;;;;;;39.77;19.70;;;;;;;10.42;100.00;102079.06;5006225;28;20195;-72
2024/02/15 02:11:05;;;;;;;42.43;19.60;;;;;;;10.51;100.00;102084.25;5005115;28;20200;-72
2024/02/15 02:13:30;;;;;;;34.13;18.10;;;;;;;10.54;100.00;102081.25;4988980;28;20558;-73
2024/02/15 02:15:56;;;;;;;40.27;17.60;;;;;;;10.43;100.00;102046.72;5010079;28;20651;-72
2024/02/15 02:18:24;;;;;;;37.73;18.87;;;;;;;10.39;100.00;102037.34;4994956;28;20725;-72
2024/02/15 02:20:49;;;;;;;38.60;18.23;;;;;;;10.54;100.00;102057.09;5007132;28;20481;-72
2024/02/15 02:23:18;;;;;;;32.00;17.57;;;;;;;10.54;100.00;102062.47;5013345;28;20546;-72
2024/02/15 02:25:44;;;;;;;34.30;17.83;;;;;;;10.48;100.00;102065.81;5012300;28;20682;-73
2024/02/15 02:28:10;;;;;;;30.10;17.80;;;;;;;10.49;100.00;102058.59;5002220;28;20436;-73
2024/02/15 02:30:36;;;;;;;33.30;16.90;;;;;;;10.42;100.00;102038.84;5007453;28;20490;-72
2024/02/15 02:33:01;;;;;;;40.03;19.07;;;;;;;10.50;100.00;102054.91;5008959;28;20442;-73
2024/02/15 02:35:29;;;;;;;32.50;16.87;;;;;;;10.52;100.00;102051.06;5011507;28;20189;-72
2024/02/15 02:37:56;;;;;;;31.70;18.20;;;;;;;10.49;100.00;102053.25;5009897;28;20216;-72
2024/02/15 02:40:22;;;;;;;35.93;18.67;;;;;;;10.45;100.00;102050.06;5016476;28;20468;-72
2024/02/15 02:42:53;;;;;;;31.97;17.63;;;;;;;10.45;100.00;102046.56;5008856;28;20505;-73
2024/02/15 02:45:19;;;;;;;34.47;18.00;;;;;;;10.50;100.00;102044.19;5007314;28;20185;-72
2024/02/15 02:47:46;;;;;;;33.87;16.67;;;;;;;10.21;100.00;102004.44;4993454;28;20554;-72
2024/02/15 02:50:13;;;;;;;26.77;16.73;;;;;;;10.20;100.00;101998.25;5006714;28;20561;-73
2024/02/15 02:52:39;;;;;;;27.67;16.80;;;;;;;10.06;100.00;101964.06;5012409;28;20446;-72
2024/02/15 02:55:09;;;;;;;32.53;18.37;;;;;;;10.51;100.00;102035.97;5014355;28;20451;-72
2024/02/15 02:57:37;;;;;;;35.87;17.53;;;;;;;10.31;100.00;101992.56;5014112;28;20229;-73
2024/02/15 03:00:08;;;;;;;27.65;16.10;;;;;;;10.52;100.00;102026.91;5009548;28;20534;-72
2024/02/15 03:02:37;;;;;;;30.57;16.20;;;;;;;10.10;100.00;101938.59;5010759;28;20444;-72
2024/02/15 03:05:08;;;;;;;29.37;16.60;;;;;;;10.57;100.00;102016.53;5008680;28;20439;-72
2024/02/15 03:07:34;;;;;;;33.60;16.73;;;;;;;10.55;100.00;102021.22;4994944;28;21041;-72
2024/02/15 03:10:13;;;;;;;28.20;14.73;;;;;;;10.47;100.00;101988.19;5009052;28;20463;-72
2024/02/15 03:12:39;;;;;;;31.33;14.53;;;;;;;10.19;100.00;101942.94;5006193;28;20442;-72
2024/02/15 03:15:11;;;;;;;21.67;13.50;;;;;;;10.58;100.00;102009.31;5006421;28;20440;-72
2024/02/15 03:17:39;;;;;;;29.80;14.97;;;;;;;10.63;100.00;102001.59;5003027;28;21012;-73
2024/02/15 03:20:28;;;;;;;32.13;15.07;;;;;;;10.46;100.00;101992.72;4995963;28;20474;-73
2024/02/15 03:22:55;;;;;;;24.63;13.23;;;;;;;10.49;100.00;101981.66;4997224;28;20474;-72
2024/02/15 03:25:23;;;;;;;28.40;14.23;;;;;;;10.66;100.00;102000.41;5009155;28;20953;-72
2024/02/15 03:27:52;;;;;;;30.40;12.80;;;;;;;10.52;100.00;101967.06;5007669;28;20454;-72
2024/02/15 03:30:23;;;;;;;23.47;13.03;;;;;;;10.48;100.00;101968.44;5008297;28;20460;-72
2024/02/15 03:32:50;;;;;;;21.50;12.20;;;;;;;10.30;100.00;101931.91;5009152;28;20435;-72
2024/02/15 03:35:17;;;;;;;23.13;12.80;;;;;;;10.50;100.00;101969.94;4996443;28;20557;-72
2024/02/15 03:37:43;;;;;;;23.23;11.93;;;;;;;10.58;100.00;101969.88;4994713;28;21032;-72
2024/02/15 03:40:09;;;;;;;24.57;11.60;;;;;;;10.62;100.00;101967.72;5008487;28;20512;-72
2024/02/15 03:42:36;;;;;;;28.50;12.00;;;;;;;10.56;100.00;101969.25;4992942;28;20505;-72
2024/02/15 03:45:03;;;;;;;26.80;11.93;;;;;;;10.52;100.00;101954.47;4994851;28;20511;-72
2024/02/15 03:47:29;;;;;;;23.63;12.17;;;;;;;10.51;100.00;101951.97;5014691;28;20950;-72
2024/02/15 03:49:57;;;;;;;22.27;11.40;;;;;;;10.48;100.00;101960.38;5006356;28;20470;-72
2024/02/15 03:52:23;;;;;;;27.10;12.10;;;;;;;10.47;100.00;101935.41;5011111;28;20192;-72
2024/02/15 03:54:49;;;;;;;25.70;11.47;;;;;;;10.39;100.00;101919.31;5011052;28;20849;-72
2024/02/15 03:57:16;;;;;;;20.17;10.90;;;;;;;10.59;100.00;101949.28;5014764;28;20832;-72
2024/02/15 03:59:42;;;;;;;21.37;10.60;;;;;;;10.50;100.00;101928.84;5010941;28;20705;-72
2024/02/15 04:02:12;;;;;;;22.10;10.57;;;;;;;10.61;100.00;101953.44;5009404;28;20440;-72
2024/02/15 04:04:41;;;;;;;24.27;11.77;;;;;;;10.47;100.00;101924.66;5012627;28;20192;-72
2024/02/15 04:07:07;;;;;;;26.50;10.60;;;;;;;10.43;100.00;101917.13;5012992;28;20427;-72
2024/02/15 04:09:32;;;;;;;20.43;10.60;;;;;;;10.28;100.00;101898.22;5008054;28;20917;-72
2024/02/15 04:11:58;;;;;;;19.63;10.23;;;;;;;10.67;100.00;101951.91;4997801;28;20762;-73
2024/02/15 04:14:24;;;;;;;23.57;10.63;;;;;;;10.36;100.00;101914.31;4994932;28;20663;-72
2024/02/15 04:16:49;;;;;;;17.73;9.83;;;;;;;10.26;100.00;101917.13;4988586;28;20219;-72
2024/02/15 04:19:15;;;;;;;21.43;10.47;;;;;;;10.18;100.00;101903.72;5008540;28;20213;-72
2024/02/15 04:21:40;;;;;;;20.07;10.10;;;;;;;9.90;100.00;101871.13;4992203;28;20239;-72
2024/02/15 04:24:06;;;;;;;23.33;10.03;;;;;;;10.44;100.00;101957.19;5009606;28;20207;-72
2024/02/15 04:26:33;;;;;;;19.93;10.00;;;;;;;10.18;100.00;101920.66;4991606;28;20845;-72
2024/02/15 04:28:59;;;;;;;21.13;10.47;;;;;;;10.49;100.00;101981.66;5003827;28;20189;-72
2024/02/15 04:31:28;;;;;;;21.07;10.50;;;;;;;10.39;100.00;101954.19;5010532;28;20463;-72
2024/02/15 04:33:54;;;;;;;21.43;9.40;;;;;;;10.53;100.00;101983.00;5005535;28;20694;-72
2024/02/15 04:36:23;;;;;;;23.30;9.50;;;;;;;10.18;100.00;101942.13;5012777;28;20640;-71
2024/02/15 04:38:52;;;;;;;20.50;10.50;;;;;;;9.83;100.00;101888.84;5007025;28;21089;-72
2024/02/15 04:41:23;;;;;;;24.77;9.80;;;;;;;10.47;100.00;101998.91;5008848;28;20530;-72
2024/02/15 04:43:49;;;;;;;20.10;9.13;;;;;;;10.39;100.00;102008.66;5007059;28;20447;-71
2024/02/15 04:46:14;;;;;;;19.43;10.07;;;;;;;10.40;100.00;102012.19;5009929;28;20452;-72
2024/02/15 04:48:43;;;;;;;17.07;9.00;;;;;;;10.01;100.00;101959.22;5010880;28;20443;-72
2024/02/15 04:51:13;;;;;;;29.00;10.97;;;;;;;10.43;100.00;102061.97;4999947;28;20231;-73
2024/02/15 04:53:39;;;;;;;23.10;10.30;;;;;;;10.46;100.00;102057.09;5015567;28;20531;-72
2024/02/15 04:56:11;;;;;;;23.33;9.40;;;;;;;9.75;100.00;101956.69;5009313;28;20509;-72
2024/02/15 04:58:37;;;;;;;17.73;8.07;;;;;;;10.45;100.00;102070.69;5004349;28;23084;-72
2024/02/15 05:01:04;;;;;;;19.07;9.77;;;;;;;10.36;100.00;102073.38;5006813;28;20478;-71
2024/02/15 05:03:34;;;;;;;25.33;10.60;;;;;;;10.42;100.00;102097.84;5008553;28;22832;-72
2024/02/15 05:06:00;;;;;;;21.57;8.87;;;;;;;10.26;100.00;102072.66;4990339;28;20996;-72
2024/02/15 05:08:26;;;;;;;21.90;8.13;;;;;;;10.46;100.00;102101.88;5005618;28;20527;-72
2024/02/15 05:10:56;;;;;;;26.83;9.60;;;;;;;10.06;100.00;102044.47;5007135;28;20292;-72
2024/02/15 05:13:22;;;;;;;19.40;8.33;;;;;;;10.34;100.00;102098.69;5007902;28;20192;-72
2024/02/15 05:15:48;;;;;;;19.67;8.67;;;;;;;10.15;100.00;102054.19;5006127;28;20446;-72
2024/02/15 05:18:13;;;;;;;29.87;10.37;;;;;;;9.89;100.00;102027.53;5001010;28;20471;-72
2024/02/15 05:20:40;;;;;;;23.50;8.90;;;;;;;10.27;100.00;102111.91;5008070;28;20687;-72
2024/02/15 05:23:06;;;;;;;20.50;11.10;;;;;;;9.73;100.00;102045.25;5008333;28;20204;-72
2024/02/15 05:25:32;;;;;;;20.53;9.47;;;;;;;10.18;100.00;102113.72;5008681;28;20493;-72
2024/02/15 05:27:58;;;;;;;26.23;11.10;;;;;;;9.92;100.00;102075.44;5005386;28;20185;-72
2024/02/15 05:30:25;;;;;;;26.87;10.93;;;;;;;10.33;100.00;102121.97;5002840;28;20530;-72
2024/02/15 05:32:52;;;;;;;32.23;12.40;;;;;;;10.06;100.00;102111.50;5004280;28;20208;-72
2024/02/15 05:35:18;;;;;;;26.77;13.00;;;;;;;9.77;100.00;102037.72;5002400;28;21560;-72
2024/02/15 05:37:43;;;;;;;25.87;12.97;;;;;;;10.38;100.00;102110.75;5013649;28;20537;-72
2024/02/15 05:40:14;;;;;;;30.63;12.77;;;;;;;10.03;100.00;102066.25;5007154;28;20221;-72
2024/02/15 05:42:45;;;;;;;30.43;13.03;;;;;;;9.80;100.00;102042.75;5005646;28;20231;-72
2024/02/15 05:45:39;;;;;;;25.40;13.03;;;;;;;10.29;100.00;102128.66;4992998;28;20432;-72
2024/02/15 05:48:06;;;;;;;28.40;12.57;;;;;;;10.39;100.00;102141.94;5009161;28;20444;-72
2024/02/15 05:50:32;;;;;;;26.63;12.47;;;;;;;10.40;100.00;102162.38;5014133;28;20852;-72
2024/02/15 05:52:58;;;;;;;24.27;13.60;;;;;;;10.38;100.00;102148.28;5027174;28;20442;-72
2024/02/15 05:55:26;;;;;;;29.13;13.50;;;;;;;10.36;100.00;102134.22;4993286;28;20193;-72
2024/02/15 05:57:51;;;;;;;31.97;13.40;;;;;;;10.50;100.00;102132.72;5005504;28;20825;-72
2024/02/15 06:00:18;;;;;;;28.80;14.40;;;;;;;10.51;100.00;102107.56;5011883;28;20471;-73
2024/02/15 06:02:44;;;;;;;22.67;13.97;;;;;;;10.47;100.00;102084.75;5013084;28;20199;-72
2024/02/15 06:05:10;;;;;;;23.17;14.07;;;;;;;10.14;100.00;102023.88;5013677;28;20444;-72
2024/02/15 06:07:35;;;;;;;21.50;14.53;;;;;;;10.35;100.00;102049.38;5003336;28;20571;-72
2024/02/15 06:10:03;;;;;;;28.80;14.20;;;;;;;10.18;100.00;102009.16;5013198;28;20215;-72
2024/02/15 06:12:29;;;;;;;27.07;14.57;;;;;;;10.18;100.00;102016.31;5015507;28;20188;-72
2024/02/15 06:14:55;;;;;;;27.30;14.63;;;;;;;10.05;100.00;101983.84;5016720;28;20510;-72
2024/02/15 06:17:20;;;;;;;23.93;13.90;;;;;;;10.36;100.00;102033.13;5009529;28;20475;-72
2024/02/15 06:19:46;;;;;;;32.23;16.63;;;;;;;10.24;100.00;102015.69;5017624;28;20714;-72
2024/02/15 06:22:12;;;;;;;27.17;17.10;;;;;;;10.11;100.00;102002.75;5012905;28;20192;-72
2024/02/15 06:24:38;;;;;;;29.87;18.13;;;;;;;10.60;100.00;102077.88;5012297;28;20195;-72
2024/02/15 06:27:04;;;;;;;34.73;19.50;;;;;;;10.33;100.00;102036.16;5010741;28;20522;-72
2024/02/15 06:40:28;;;;;;;34.20;21.20;;;;;;;10.05;100.00;101983.84;5016134;28;20457;-72
2024/02/15 06:42:54;;;;;;;34.30;20.93;;;;;;;10.77;100.00;102080.56;5005714;28;20419;-72
2024/02/15 06:45:20;;;;;;;34.63;21.13;;;;;;;10.78;100.00;102074.19;5013259;28;20445;-72
2024/02/15 06:47:45;;;;;;;34.13;22.50;;;;;;;10.59;100.00;102041.34;5001464;28;20525;-72
2024/02/15 06:50:13;;;;;;;30.70;21.90;;;;;;;10.06;100.00;101958.69;5015507;28;20208;-72
2024/02/15 06:52:39;;;;;;;31.73;21.70;;;;;;;10.66;100.00;102037.97;5001037;28;20185;-73
2024/02/15 06:55:08;;;;;;;36.27;23.13;;;;;;;10.11;100.00;101949.16;5012095;28;20453;-73
2024/02/15 06:57:35;;;;;;;35.20;23.90;;;;;;;10.85;100.00;102073.34;5012330;28;20212;-73
2024/02/15 07:00:07;;;;;;;32.93;22.00;;;;;;;10.87;100.00;102083.88;5012554;28;20455;-73
2024/02/15 07:02:36;;;;;;;34.43;22.00;;;;;;;10.48;100.00;102030.13;5003445;28;21396;-73
2024/02/15 07:05:02;;;;;;;34.90;23.13;;;;;;;10.73;100.00;102052.38;5008215;28;20448;-73
2024/02/15 07:07:28;;;;;;;32.83;21.80;;;;;;;10.17;100.00;101959.19;4992304;28;20424;-73
2024/02/15 07:09:54;;;;;;;34.10;23.10;;;;;;;10.29;100.00;101994.56;5011936;28;20837;-73
2024/02/15 07:12:21;;;;;;;31.80;22.37;;;;;;;10.82;100.00;102097.00;5011579;28;20505;-73
2024/02/15 07:14:47;;;;;;;36.77;24.50;;;;;;;10.71;100.00;102083.94;4997425;28;20192;-73
2024/02/15 07:17:12;;;;;;;33.03;23.90;;;;;;;10.68;100.00;102082.41;5011240;28;20471;-73
2024/02/15 07:19:42;;;;;;;33.33;25.27;;;;;;;10.84;100.00;102124.50;4999850;28;20448;-73
2024/02/15 07:22:08;;;;;;;37.20;23.80;;;;;;;10.81;100.00;102125.66;5010653;28;20652;-73
2024/02/15 07:24:34;;;;;;;35.83;23.93;;;;;;;10.31;100.00;102064.97;5012164;28;20491;-73
2024/02/15 07:26:59;;;;;;;34.63;24.40;;;;;;;10.79;100.00;102153.66;5010308;28;20534;-73
2024/02/15 07:29:25;;;;;;;34.93;24.20;;;;;;;10.41;100.00;102075.53;5010973;28;20215;-73
2024/02/15 07:31:50;;;;;;;35.80;24.40;;;;;;;10.56;100.00;102089.97;5009404;28;20184;-73
2024/02/15 07:34:16;;;;;;;34.30;23.87;;;;;;;10.86;100.00;102135.91;5010954;28;20181;-73
2024/02/15 07:36:42;;;;;;;34.23;24.80;;;;;;;10.90;100.00;102137.22;5011821;28;20216;-73
2024/02/15 07:39:12;;;;;;;37.37;25.87;;;;;;;10.43;100.00;102072.69;5008758;28;20209;-73
2024/02/15 07:41:38;;;;;;;36.47;25.63;;;;;;;10.78;100.00;102143.97;4991018;28;20529;-73
2024/02/15 07:44:04;;;;;;;39.57;26.60;;;;;;;10.85;100.00;102156.53;5010528;28;20440;-73
2024/02/15 07:46:29;;;;;;;34.40;24.77;;;;;;;10.89;100.00;102165.09;4998907;28;20510;-73
2024/02/15 07:48:55;;;;;;;33.83;23.70;;;;;;;10.86;100.00;102152.84;5010286;28;21157;-73
2024/02/15 07:51:22;;;;;;;38.47;25.27;;;;;;;10.89;100.00;102161.56;5002367;28;20189;-73
2024/02/15 07:53:48;;;;;;;40.37;24.87;;;;;;;10.79;100.00;102156.34;5007286;28;20193;-73
2024/02/15 07:56:15;;;;;;;30.93;24.10;;;;;;;10.63;100.00;102155.34;5014322;28;20433;-73
2024/02/15 07:58:48;;;;;;;37.37;25.83;;;;;;;10.43;100.00;102111.09;5010053;28;20452;-73
2024/02/15 08:01:16;;;;;;;38.00;24.80;;;;;;;10.66;100.00;102158.72;5013249;28;20432;-73
2024/02/15 08:03:46;;;;;;;40.03;24.73;;;;;;;10.55;100.00;102139.25;5010374;28;20559;-73
2024/02/15 08:06:12;;;;;;;38.60;25.13;;;;;;;10.07;100.00;102059.59;5011500;28;20443;-73
2024/02/15 08:08:41;;;;;;;37.13;25.70;;;;;;;10.79;100.00;102145.63;5010179;28;20864;-73
2024/02/15 08:11:14;;;;;;;36.60;25.53;;;;;;;10.83;100.00;102149.66;5010110;28;20880;-75
2024/02/15 08:13:49;;;;;;;36.80;24.40;;;;;;;10.93;100.00;102162.91;5011689;28;20442;-73
2024/02/15 08:16:16;;;;;;;34.97;23.93;;;;;;;10.86;100.00;102138.59;5013129;28;21020;-73
2024/02/15 08:18:43;;;;;;;34.17;24.20;;;;;;;10.91;100.00;102160.41;4994445;28;20589;-73
2024/02/15 08:21:10;;;;;;;34.50;23.10;;;;;;;10.91;100.00;102155.03;4996117;28;20455;-73
2024/02/15 08:23:36;;;;;;;33.87;23.40;;;;;;;10.76;100.00;102121.81;5010815;28;20537;-73
2024/02/15 08:26:01;;;;;;;35.10;24.40;;;;;;;10.41;100.00;102078.22;5010204;28;20497;-73
2024/02/15 08:28:30;;;;;;;26.87;21.47;;;;;;;10.94;100.00;102162.75;5008507;28;20177;-73
2024/02/15 08:30:59;;;;;;;34.50;24.53;;;;;;;10.89;100.00;102167.78;5008104;28;20227;-73
2024/02/15 08:33:26;;;;;;;31.57;21.70;;;;;;;10.75;100.00;102146.97;4990515;28;20525;-73
2024/02/15 08:35:55;;;;;;;26.70;22.33;;;;;;;10.88;100.00;102176.84;5009018;28;20474;-73
2024/02/15 08:38:21;;;;;;;38.57;23.67;;;;;;;10.84;100.00;102183.53;4995838;28;20630;-73
2024/02/15 08:40:47;;;;;;;32.30;22.57;;;;;;;10.41;100.00;102123.81;4997433;28;20601;-73
2024/02/15 08:43:14;;;;;;;30.43;22.17;;;;;;;10.90;100.00;102203.50;5012176;28;20444;-73
2024/02/15 08:45:39;;;;;;;30.77;21.40;;;;;;;10.25;100.00;102094.28;5009570;28;20447;-73
2024/02/15 08:48:05;;;;;;;33.30;21.17;;;;;;;10.37;100.00;102122.47;5012332;28;20984;-73
2024/02/15 08:50:30;;;;;;;35.10;21.73;;;;;;;10.94;100.00;102211.06;5008136;28;20228;-73
2024/02/15 08:52:56;;;;;;;30.97;21.60;;;;;;;10.72;100.00;102174.97;5011998;28;20577;-73
2024/02/15 08:55:26;;;;;;;35.03;20.97;;;;;;;10.71;100.00;102175.16;5014471;28;20181;-73
2024/02/15 08:57:52;;;;;;;29.47;19.77;;;;;;;10.68;100.00;102191.59;5010506;28;20490;-73
2024/02/15 09:00:18;;;;;;;35.23;22.80;;;;;;;10.73;100.00;102198.16;5006871;28;20483;-73
2024/02/15 09:02:44;;;;;;;28.43;20.20;;;;;;;10.91;100.00;102227.50;4997530;28;21033;-74
2024/02/15 09:05:10;;;;;;;30.00;21.43;;;;;;;10.92;100.00;102245.28;5008274;28;20207;-73
2024/02/15 09:07:39;;;;;;;27.70;20.77;;;;;;;10.58;100.00;102199.78;4992792;28;20439;-73
2024/02/15 09:10:07;;;;;;;32.93;22.70;;;;;;;10.62;100.00;102215.41;5001274;28;20207;-73
2024/02/15 09:12:32;;;;;;;35.90;20.00;;;;;;;10.13;100.00;102153.59;5014994;28;20467;-73
2024/02/15 09:14:58;;;;;;;30.83;20.60;;;;;;;10.65;100.00;102261.69;5012482;28;20463;-72
2024/02/15 09:17:24;;;;;;;33.40;21.00;;;;;;;10.36;100.00;102210.16;5016033;28;20250;-73
2024/02/15 09:19:49;;;;;;;31.37;21.80;;;;;;;10.80;100.00;102298.47;4994071;28;21830;-73
2024/02/15 09:22:15;;;;;;;31.30;20.53;;;;;;;10.94;100.00;102331.88;5009790;28;20440;-73
2024/02/15 09:24:42;;;;;;;32.70;21.90;;;;;;;10.85;100.00;102319.44;4992123;28;20193;-73
2024/02/15 09:27:07;;;;;;;28.53;20.90;;;;;;;10.95;100.00;102338.09;5011587;28;20300;-73
2024/02/15 09:29:33;;;;;;;31.97;21.30;;;;;;;10.63;100.00;102286.00;5010012;28;21044;-73
2024/02/15 09:32:01;;;;;;;27.60;20.83;;;;;;;10.91;100.00;102334.06;4990568;28;20181;-72
2024/02/15 09:34:27;;;;;;;32.00;21.27;;;;;;;10.97;100.00;102344.97;4989823;28;20211;-73
2024/02/15 09:36:52;;;;;;;32.20;22.20;;;;;;;10.84;100.00;102329.31;5011992;28;20463;-73
2024/02/15 09:39:18;;;;;;;30.20;21.00;;;;;;;10.78;100.00;102323.78;5010275;28;20219;-73
2024/02/15 09:41:44;;;;;;;31.13;19.90;;;;;;;10.50;100.00;102288.31;5008096;28;20193;-73
2024/02/15 09:44:10;;;;;;;37.60;22.43;;;;;;;10.92;100.00;102341.94;5011027;28;20606;-73
2024/02/15 09:46:42;;;;;;;31.93;21.47;;;;;;;10.99;100.00;102369.81;5007171;28;20486;-73
2024/02/15 09:49:07;;;;;;;29.50;19.93;;;;;;;10.93;100.00;102354.34;5010318;28;20451;-73
2024/02/15 09:51:34;;;;;;;28.50;21.10;;;;;;;11.03;100.00;102365.78;5008552;28;20442;-73
2024/02/15 09:54:01;;;;;;;30.67;19.40;;;;;;;10.74;100.00;102311.69;5012158;28;20194;-73
2024/02/15 09:56:28;;;;;;;27.07;17.37;;;;;;;10.78;100.00;102321.09;5011586;28;20436;-73
2024/02/15 09:58:54;;;;;;;25.73;15.97;;;;;;;10.81;100.00;102318.91;5014551;28;20437;-73
2024/02/15 10:01:25;;;;;;;36.43;18.37;;;;;;;10.81;100.00;102323.44;5005302;28;20438;-73
2024/02/15 10:03:51;;;;;;;29.60;18.80;;;;;;;10.73;100.00;102320.75;5013401;28;20267;-73
2024/02/15 10:06:18;;;;;;;30.27;18.27;;;;;;;11.03;100.00;102375.69;4994343;28;20830;-73
2024/02/15 10:08:44;;;;;;;24.97;17.40;;;;;;;11.06;100.00;102373.50;5000041;28;20497;-73
2024/02/15 10:11:10;;;;;;;28.77;17.77;;;;;;;10.76;100.00;102334.69;5008001;28;20456;-73
2024/02/15 10:13:36;;;;;;;31.00;18.17;;;;;;;11.01;100.00;102375.84;5005635;28;20554;-73
2024/02/15 10:16:18;;;;;;;27.10;18.60;;;;;;;10.95;100.00;102367.63;5008948;28;20439;-72
2024/02/15 10:18:47;;;;;;;33.23;19.07;;;;;;;11.03;100.00;102375.69;5010387;28;20942;-73
2024/02/15 10:21:28;;;;;;;31.97;19.03;;;;;;;10.80;100.00;102348.63;4993963;28;20439;-73
2024/02/15 10:24:06;;;;;;;24.97;16.83;;;;;;;8.85;100.00;102051.91;5034590;23;20490;-77
2024/02/15 10:26:34;;;;;;;24.80;16.13;;;;;;;9.11;100.00;102078.66;5025817;28;20447;-78
2024/02/15 10:29:10;;;;;;;22.73;16.20;;;;;;;8.56;100.00;101957.63;5000793;28;20529;-77
2024/02/15 10:31:46;;;;;;;26.37;17.60;;;;;;;10.18;100.00;102209.38;5005423;28;20536;-77
2024/02/15 10:34:14;;;;;;;24.30;17.13;;;;;;;10.24;100.00;102230.22;5006262;28;20791;-77
2024/02/15 10:36:39;;;;;;;27.37;18.13;;;;;;;9.08;100.00;102095.03;5005636;28;20468;-77
2024/02/15 10:39:19;;;;;;;25.57;17.73;;;;;;;9.28;100.00;102104.50;5008186;28;20955;-77
2024/02/15 10:41:50;;;;;;;25.43;17.57;;;;;;;8.59;100.00;101969.81;4989904;28;20260;-77
2024/02/15 10:44:21;;;;;;;22.53;15.80;;;;;;;9.47;100.00;102127.53;4989680;28;20439;-77
2024/02/15 10:46:51;;;;;;;25.37;17.10;;;;;;;8.87;100.00;101983.84;5005576;28;20471;-78
2024/02/15 10:49:21;;;;;;;22.83;15.60;;;;;;;10.30;100.00;102205.44;4987398;28;20494;-78
2024/02/15 10:52:06;;;;;;;24.93;15.97;;;;;;;9.66;100.00;102076.41;5009138;28;20525;-79
2024/02/15 10:54:41;;;;;;;21.43;16.37;;;;;;;11.27;100.00;102342.66;5007091;28;20448;-77
2024/02/15 10:57:09;;;;;;;22.70;16.03;;;;;;;10.05;100.00;102129.44;5005954;28;20517;-77
2024/02/15 10:59:37;;;;;;;24.13;15.50;;;;;;;9.63;100.00;102071.38;5005507;28;20440;-77
2024/02/15 11:02:17;;;;;;;26.77;16.23;;;;;;;9.26;100.00;101975.34;4990555;28;20444;-77
2024/02/15 11:04:44;;;;;;;22.20;15.67;;;;;;;8.76;100.00;101883.31;4994222;28;20443;-78
2024/02/15 11:07:11;;;;;;;23.73;14.93;;;;;;;9.42;100.00;101974.53;5008479;28;20524;-77
2024/02/15 11:09:38;;;;;;;21.67;15.30;;;;;;;8.62;100.00;101834.94;4993399;28;20513;-78
2024/02/15 11:12:06;;;;;;;21.97;15.30;;;;;;;8.41;100.00;101800.59;5007029;28;20535;-77
2024/02/15 11:14:33;;;;;;;22.07;15.40;;;;;;;8.76;100.00;101824.44;5006897;28;20494;-78